Time;durP1;ratioP1;P1;durP2;ratioP2;P2;SDS_P1;SDS_P2;PMS_P1;PMS_P2;Temp;Humidity;BMP_temperature;BMP_pressure;BME280_temperature;BME280_humidity;BME280_pressure;Samples;Min_cycle;Max_cycle;Signal;HPM_P1;HPM_P2
2023/05/13 00:00:12;;;;;;;3.50;2.10;;;;;;;11.27;50.57;95295.69;5025233;28;20245;-68
2023/05/13 00:02:37;;;;;;;4.90;2.17;;;;;;;11.11;49.47;95295.53;5042811;28;20225;-68
2023/05/13 00:05:03;;;;;;;1.83;1.70;;;;;;;11.04;50.23;95286.59;5023321;28;20300;-68
2023/05/13 00:07:28;;;;;;;2.03;1.77;;;;;;;11.08;49.35;95285.31;5029707;28;20253;-68
2023/05/13 00:09:53;;;;;;;2.80;1.80;;;;;;;10.98;49.28;95289.78;5041161;28;20229;-68
2023/05/13 00:12:19;;;;;;;2.20;1.63;;;;;;;11.07;49.60;95290.72;5027238;28;20221;-67
2023/05/13 00:14:45;;;;;;;2.97;2.03;;;;;;;11.08;49.03;95292.38;5027756;28;20225;-67
2023/05/13 00:17:10;;;;;;;3.73;1.70;;;;;;;11.12;49.07;95298.97;5021811;28;20228;-68
2023/05/13 00:19:35;;;;;;;3.07;1.90;;;;;;;11.11;47.65;95297.34;5024581;28;20199;-68
2023/05/13 00:22:01;;;;;;;2.23;1.53;;;;;;;10.91;49.11;95297.47;5030764;28;20279;-67
2023/05/13 00:24:26;;;;;;;4.87;1.80;;;;;;;11.04;48.91;95297.94;5043265;28;20304;-68
2023/05/13 00:26:53;;;;;;;2.33;1.67;;;;;;;11.11;46.65;95306.06;5029552;28;20226;-67
2023/05/13 00:29:18;;;;;;;2.10;1.90;;;;;;;11.15;47.46;95314.50;5029981;28;20308;-68
2023/05/13 00:31:43;;;;;;;3.77;1.70;;;;;;;11.09;47.98;95320.34;5021229;28;20683;-67
2023/05/13 00:34:09;;;;;;;3.57;2.10;;;;;;;11.06;48.41;95320.63;5023252;28;20182;-69
2023/05/13 00:36:34;;;;;;;3.60;1.90;;;;;;;11.07;48.59;95331.03;5024952;28;20225;-68
2023/05/13 00:39:00;;;;;;;3.40;1.83;;;;;;;10.87;48.81;95326.81;5028388;28;20225;-68
2023/05/13 00:41:25;;;;;;;3.77;1.73;;;;;;;10.84;49.07;95327.13;5022095;28;20253;-67
2023/05/13 00:43:54;;;;;;;2.03;1.60;;;;;;;10.85;49.31;95321.69;5025479;28;20253;-67
2023/05/13 00:46:20;;;;;;;1.97;1.77;;;;;;;10.91;50.52;95304.53;5027313;28;20284;-67
2023/05/13 00:48:46;;;;;;;3.93;1.80;;;;;;;10.99;49.86;95302.00;5024313;28;20304;-66
2023/05/13 00:51:11;;;;;;;2.13;1.57;;;;;;;10.96;49.78;95323.31;5028685;28;20225;-67
2023/05/13 00:53:38;;;;;;;4.03;2.20;;;;;;;11.06;50.03;95321.47;5029984;28;20304;-67
2023/05/13 00:56:04;;;;;;;2.40;2.10;;;;;;;11.19;50.90;95316.66;5030786;28;20222;-67
2023/05/13 00:58:30;;;;;;;2.80;2.57;;;;;;;11.23;53.17;95320.69;5026045;28;20279;-67
2023/05/13 01:01:16;;;;;;;3.93;3.07;;;;;;;11.26;55.86;95317.75;5030896;28;20232;-67
2023/05/13 01:04:20;;;;;;;4.60;3.50;;;;;;;11.26;57.51;95312.47;5041747;28;20229;-67
2023/05/13 01:07:04;;;;;;;5.03;3.63;;;;;;;11.16;58.55;95310.88;5020358;28;20224;-67
2023/05/13 01:09:36;;;;;;;5.20;4.00;;;;;;;11.16;58.73;95322.22;5028757;28;20221;-67
2023/05/13 01:12:07;;;;;;;4.67;3.60;;;;;;;11.02;58.89;95323.56;5041633;28;20229;-69
2023/05/13 01:14:39;;;;;;;3.43;3.07;;;;;;;10.89;56.12;95317.81;5029151;28;20225;-69
2023/05/13 01:17:13;;;;;;;3.60;2.50;;;;;;;10.79;54.44;95332.81;5027018;28;20225;-68
2023/05/13 01:19:57;;;;;;;4.20;3.17;;;;;;;10.89;55.19;95325.72;5027717;28;20193;-68
2023/05/13 01:22:23;;;;;;;3.90;2.63;;;;;;;10.83;54.22;95342.09;5044400;28;20244;-69
2023/05/13 01:24:49;;;;;;;2.90;2.17;;;;;;;10.97;53.40;95340.78;5020457;28;20256;-68
2023/05/13 01:27:15;;;;;;;1.80;1.70;;;;;;;10.89;50.30;95338.03;5036019;28;20222;-68
2023/05/13 01:29:42;;;;;;;3.43;2.10;;;;;;;10.79;49.79;95336.25;5030735;28;20234;-68
2023/05/13 01:32:10;;;;;;;3.40;2.20;;;;;;;10.81;48.81;95358.00;5048998;28;20225;-68
2023/05/13 01:34:38;;;;;;;2.20;1.73;;;;;;;10.67;50.05;95361.13;5025228;28;20185;-68
2023/05/13 01:37:04;;;;;;;3.13;1.80;;;;;;;10.67;49.17;95342.69;5044677;28;20220;-68
2023/05/13 01:39:31;;;;;;;2.80;1.63;;;;;;;10.75;48.45;95337.53;5026327;28;20225;-68
2023/05/13 01:41:56;;;;;;;2.47;1.70;;;;;;;10.84;47.92;95343.72;5034392;28;20225;-68
2023/05/13 01:44:22;;;;;;;3.93;1.70;;;;;;;10.89;48.03;95336.22;5024871;28;20598;-68
2023/05/13 01:46:49;;;;;;;2.50;1.90;;;;;;;10.82;47.33;95343.91;5033364;28;20251;-67
2023/05/13 01:49:15;;;;;;;2.07;1.60;;;;;;;10.80;47.11;95337.13;5032769;28;20189;-68
2023/05/13 01:51:41;;;;;;;2.07;1.80;;;;;;;10.84;47.94;95335.00;5025915;28;20261;-68
2023/05/13 01:54:06;;;;;;;2.23;1.60;;;;;;;10.87;47.76;95330.28;5024023;28;20230;-67
2023/05/13 01:56:32;;;;;;;1.87;1.70;;;;;;;10.74;47.98;95338.50;5025820;28;20278;-68
2023/05/13 01:58:57;;;;;;;2.57;2.00;;;;;;;10.76;48.30;95335.75;5025985;28;20247;-69
2023/05/13 02:01:23;;;;;;;3.30;1.80;;;;;;;10.82;48.64;95330.75;5040081;28;20210;-69
2023/05/13 02:03:48;;;;;;;2.10;1.90;;;;;;;10.86;49.05;95326.00;5027840;28;20251;-68
2023/05/13 02:06:14;;;;;;;2.53;2.07;;;;;;;11.00;48.89;95329.94;5025468;28;20300;-68
2023/05/13 02:08:39;;;;;;;2.73;2.27;;;;;;;11.00;49.75;95317.63;5027903;28;20228;-69
2023/05/13 02:11:05;;;;;;;3.33;2.37;;;;;;;11.01;51.56;95319.28;5019977;28;20229;-69
2023/05/13 02:13:30;;;;;;;3.43;3.13;;;;;;;11.02;52.97;95341.97;5029011;28;20293;-68
2023/05/13 02:15:56;;;;;;;4.17;3.60;;;;;;;10.99;54.62;95342.28;5029139;28;20220;-68
2023/05/13 02:18:22;;;;;;;4.47;4.07;;;;;;;10.76;56.34;95341.81;5030638;28;20234;-69
2023/05/13 02:20:47;;;;;;;5.07;3.93;;;;;;;10.82;56.84;95345.66;5031348;28;20230;-68
2023/05/13 02:23:13;;;;;;;5.07;4.57;;;;;;;10.82;57.61;95350.94;5028893;28;20287;-69
2023/05/13 02:25:40;;;;;;;4.83;4.20;;;;;;;10.77;58.15;95348.75;5031980;28;20234;-68
2023/05/13 02:28:06;;;;;;;4.50;4.10;;;;;;;10.72;58.47;95345.72;5033311;28;20225;-69
2023/05/13 02:30:32;;;;;;;4.57;3.97;;;;;;;10.64;59.00;95348.25;5031909;28;20230;-69
2023/05/13 02:32:57;;;;;;;4.70;3.93;;;;;;;10.66;58.83;95361.25;5026794;28;20234;-69
2023/05/13 02:35:24;;;;;;;4.00;3.70;;;;;;;10.63;57.53;95361.53;5030917;28;20335;-67
2023/05/13 02:37:49;;;;;;;3.73;3.13;;;;;;;10.70;56.32;95362.63;5033856;28;20186;-68
2023/05/13 02:40:15;;;;;;;4.60;3.00;;;;;;;10.50;55.08;95349.53;5026895;28;20181;-68
2023/05/13 02:42:42;;;;;;;4.10;3.70;;;;;;;10.66;54.99;95351.53;5028111;28;20236;-68
2023/05/13 02:45:08;;;;;;;3.53;3.10;;;;;;;10.60;54.83;95350.31;5028246;28;20218;-68
2023/05/13 02:47:34;;;;;;;3.87;3.20;;;;;;;10.69;53.65;95350.44;5029902;28;20270;-67
2023/05/13 02:49:59;;;;;;;3.03;2.40;;;;;;;10.72;53.79;95355.41;5030095;28;20185;-67
2023/05/13 02:52:25;;;;;;;3.53;2.77;;;;;;;10.80;53.65;95348.47;5031503;28;20181;-67
2023/05/13 02:54:50;;;;;;;2.80;2.60;;;;;;;10.77;52.62;95354.03;5026874;28;20244;-66
2023/05/13 02:57:16;;;;;;;3.57;2.60;;;;;;;10.71;52.41;95367.72;5025608;28;20226;-67
2023/05/13 02:59:41;;;;;;;4.23;3.00;;;;;;;10.82;52.59;95362.31;5042789;28;20229;-69
2023/05/13 03:02:07;;;;;;;3.43;2.50;;;;;;;10.84;53.34;95367.41;5022595;28;20228;-67
2023/05/13 03:04:32;;;;;;;3.57;2.87;;;;;;;10.85;54.45;95371.69;5041466;28;20252;-67
2023/05/13 03:06:58;;;;;;;4.13;2.50;;;;;;;10.83;55.47;95378.91;5030397;28;20224;-68
2023/05/13 03:09:23;;;;;;;2.57;2.37;;;;;;;10.81;54.74;95384.31;5023858;28;20236;-68
2023/05/13 03:11:48;;;;;;;3.20;2.90;;;;;;;10.78;55.13;95381.16;5024639;28;20236;-67
2023/05/13 03:14:14;;;;;;;3.58;2.90;;;;;;;10.81;55.44;95379.03;5022464;28;20227;-68
2023/05/13 03:16:40;;;;;;;6.63;3.07;;;;;;;10.78;56.42;95389.84;5023470;28;20182;-68
2023/05/13 03:19:05;;;;;;;3.37;2.90;;;;;;;10.73;54.98;95383.38;5031461;28;20217;-66
2023/05/13 03:21:30;;;;;;;3.00;2.30;;;;;;;10.71;53.92;95374.78;5037641;28;20237;-68
2023/05/13 03:23:56;;;;;;;3.80;2.60;;;;;;;10.71;54.23;95387.94;5020184;28;20280;-68
2023/05/13 03:26:21;;;;;;;3.65;2.70;;;;;;;10.72;53.78;95389.59;5039384;28;20233;-68
2023/05/13 03:28:47;;;;;;;4.10;2.90;;;;;;;10.77;53.41;95388.22;5022687;28;20185;-68
2023/05/13 03:31:12;;;;;;;4.90;2.87;;;;;;;10.81;53.65;95391.38;5029454;28;20194;-68
2023/05/13 03:33:38;;;;;;;3.00;2.70;;;;;;;10.85;53.80;95384.84;5027595;28;20227;-69
2023/05/13 03:36:04;;;;;;;4.13;2.83;;;;;;;10.77;53.57;95385.59;5022554;28;20221;-68
2023/05/13 03:38:30;;;;;;;5.77;3.20;;;;;;;10.71;54.49;95390.56;5024813;28;20280;-68
2023/05/13 03:40:56;;;;;;;4.73;3.10;;;;;;;10.77;54.53;95401.38;5027258;28;20181;-68
2023/05/13 03:43:21;;;;;;;3.47;3.03;;;;;;;10.80;54.75;95402.88;5027139;28;20272;-69
2023/05/13 03:45:47;;;;;;;3.87;3.10;;;;;;;10.86;54.77;95402.28;5021553;28;20229;-68
2023/05/13 03:48:14;;;;;;;3.07;2.77;;;;;;;10.90;55.12;95405.47;5025929;28;20231;-69
2023/05/13 03:50:39;;;;;;;3.90;2.97;;;;;;;10.93;55.12;95403.38;5023139;28;20225;-68
2023/05/13 03:53:06;;;;;;;3.53;2.80;;;;;;;10.96;54.91;95395.19;5025016;28;20221;-67
2023/05/13 03:55:31;;;;;;;3.50;3.10;;;;;;;10.97;54.99;95396.03;5023269;28;20200;-67
2023/05/13 03:57:57;;;;;;;3.55;3.25;;;;;;;11.01;55.19;95402.63;5047062;28;20225;-67
2023/05/13 04:00:22;;;;;;;4.77;3.33;;;;;;;11.02;55.68;95420.94;5027794;28;20221;-67
2023/05/13 04:02:47;;;;;;;3.90;3.50;;;;;;;11.03;55.37;95422.56;5017425;28;20225;-67
2023/05/13 04:05:13;;;;;;;5.65;3.88;;;;;;;11.00;55.49;95425.50;5026168;28;20251;-66
2023/05/13 04:07:39;;;;;;;4.00;3.60;;;;;;;11.08;55.53;95432.69;5020610;28;20189;-66
2023/05/13 04:10:05;;;;;;;5.00;3.60;;;;;;;11.09;56.10;95436.94;5024386;28;20241;-68
2023/05/13 04:12:32;;;;;;;4.27;3.53;;;;;;;11.10;56.00;95433.38;5038579;28;20238;-67
2023/05/13 04:14:58;;;;;;;4.50;4.10;;;;;;;11.04;56.15;95429.50;5025372;28;20217;-68
2023/05/13 04:17:24;;;;;;;5.77;4.23;;;;;;;11.02;56.61;95443.78;5046822;28;20264;-68
2023/05/13 04:19:52;;;;;;;5.63;4.60;;;;;;;11.02;56.62;95436.72;5022211;28;20189;-68
2023/05/13 04:22:18;;;;;;;6.77;4.50;;;;;;;11.04;56.60;95437.41;5027147;28;20798;-67
2023/05/13 04:24:43;;;;;;;6.73;4.63;;;;;;;11.06;56.85;95437.25;5025377;28;20221;-68
2023/05/13 04:27:09;;;;;;;5.33;4.50;;;;;;;11.07;56.86;95441.56;5040304;28;20229;-68
2023/05/13 04:29:34;;;;;;;9.50;4.57;;;;;;;11.09;57.02;95441.41;5024546;28;20263;-68
2023/05/13 04:32:00;;;;;;;9.00;4.93;;;;;;;11.20;57.34;95433.31;5029465;28;20197;-68
2023/05/13 04:34:25;;;;;;;17.07;6.67;;;;;;;11.28;57.56;95441.34;5020234;28;20214;-68
2023/05/13 04:36:51;;;;;;;8.53;5.60;;;;;;;11.30;57.86;95449.91;5030389;28;20319;-67
2023/05/13 04:39:16;;;;;;;9.27;5.40;;;;;;;11.36;57.74;95454.59;5026499;28;20241;-67
2023/05/13 04:41:42;;;;;;;7.40;5.30;;;;;;;11.39;57.45;95464.00;5025386;28;20213;-67
2023/05/13 04:44:07;;;;;;;7.63;5.73;;;;;;;11.31;57.83;95456.84;5026613;28;20237;-67
2023/05/13 04:46:33;;;;;;;6.43;5.00;;;;;;;11.35;57.96;95462.63;5046131;28;20271;-67
2023/05/13 04:48:58;;;;;;;5.90;5.07;;;;;;;11.36;57.56;95459.88;5022363;28;20221;-68
2023/05/13 04:51:24;;;;;;;5.70;5.20;;;;;;;11.16;57.36;95459.09;5029063;28;20303;-66
2023/05/13 04:53:49;;;;;;;6.40;5.70;;;;;;;11.06;57.82;95453.03;5025463;28;20244;-66
2023/05/13 04:56:15;;;;;;;5.23;4.70;;;;;;;11.29;56.99;95452.69;5019095;28;20237;-67
2023/05/13 04:58:41;;;;;;;7.50;5.43;;;;;;;11.35;56.98;95449.47;5024077;28;20193;-68
2023/05/13 05:01:07;;;;;;;15.03;5.77;;;;;;;11.40;56.34;95440.16;5036514;28;20371;-67
2023/05/13 05:03:33;;;;;;;5.43;3.47;;;;;;;11.47;54.10;95443.88;5024779;28;20244;-67
2023/05/13 05:05:58;;;;;;;4.67;3.30;;;;;;;11.57;53.14;95437.69;5018674;28;20225;-68
2023/05/13 05:08:24;;;;;;;5.03;3.50;;;;;;;11.68;52.48;95437.50;5024251;28;20218;-67
2023/05/13 05:10:49;;;;;;;4.03;3.03;;;;;;;11.68;52.73;95438.34;5025658;28;20506;-67
2023/05/13 05:13:15;;;;;;;4.00;3.60;;;;;;;11.80;52.75;95438.94;5027236;28;20198;-67
2023/05/13 05:15:40;;;;;;;4.57;3.67;;;;;;;11.67;53.38;95441.94;5018683;28;20218;-67
2023/05/13 05:18:06;;;;;;;4.23;3.70;;;;;;;11.71;53.75;95447.75;5028081;28;20279;-68
2023/05/13 05:20:31;;;;;;;4.60;3.63;;;;;;;11.91;53.70;95443.22;5041707;28;20230;-67
2023/05/13 05:22:57;;;;;;;4.40;3.83;;;;;;;11.94;53.24;95436.81;5036598;28;20294;-68
2023/05/13 05:25:23;;;;;;;5.40;4.03;;;;;;;12.06;52.79;95440.91;5023234;28;20197;-68
2023/05/13 05:27:49;;;;;;;6.50;4.03;;;;;;;11.96;52.66;95448.03;5023684;28;20245;-68
2023/05/13 05:30:14;;;;;;;4.90;4.07;;;;;;;12.08;52.07;95444.19;5021533;28;20592;-69
2023/05/13 05:32:40;;;;;;;9.70;3.72;;;;;;;12.25;51.18;95442.56;5025014;28;20221;-68
2023/05/13 05:35:06;;;;;;;4.28;3.75;;;;;;;12.50;50.11;95443.56;5025861;28;20231;-67
2023/05/13 05:37:32;;;;;;;4.57;3.95;;;;;;;12.08;51.21;95444.19;5025320;28;20193;-66
2023/05/13 05:39:57;;;;;;;5.25;4.35;;;;;;;11.98;51.03;95440.81;5027768;28;20763;-67
2023/05/13 05:42:23;;;;;;;3.97;3.67;;;;;;;11.68;52.56;95458.56;5027611;28;20225;-67
2023/05/13 05:44:48;;;;;;;4.47;3.78;;;;;;;11.88;52.48;95449.59;5030272;28;20233;-67
2023/05/13 05:47:14;;;;;;;5.93;4.15;;;;;;;12.39;51.32;95444.63;5024048;28;20225;-67
2023/05/13 05:49:40;;;;;;;7.78;4.07;;;;;;;12.05;51.92;95442.69;5023019;28;20186;-67
2023/05/13 05:52:05;;;;;;;4.45;3.60;;;;;;;12.12;51.82;95443.75;5030513;28;20229;-68
2023/05/13 05:54:31;;;;;;;5.45;4.47;;;;;;;12.51;49.46;95445.22;5023501;28;20283;-68
2023/05/13 05:56:56;;;;;;;5.03;4.53;;;;;;;11.97;51.57;95452.31;5040786;28;20693;-70
2023/05/13 05:59:22;;;;;;;4.88;3.85;;;;;;;12.08;51.28;95454.72;5039526;28;20308;-68
2023/05/13 06:01:47;;;;;;;5.45;4.40;;;;;;;12.32;51.48;95454.97;5025248;28;20185;-67
2023/05/13 06:04:13;;;;;;;4.43;3.90;;;;;;;12.43;51.55;95453.06;5015682;28;20533;-67
2023/05/13 06:06:39;;;;;;;5.70;3.83;;;;;;;12.40;51.85;95448.09;5011354;28;20327;-68
2023/05/13 06:09:05;;;;;;;4.90;4.20;;;;;;;12.62;51.28;95458.19;5027005;28;20230;-66
2023/05/13 06:11:30;;;;;;;6.47;3.97;;;;;;;12.64;50.18;95450.09;5004843;28;20999;-68
2023/05/13 06:13:56;;;;;;;10.30;4.50;;;;;;;12.82;50.30;95448.25;5011804;28;20186;-68
2023/05/13 06:16:22;;;;;;;8.55;4.13;;;;;;;12.95;49.62;95453.13;5000251;28;20212;-67
2023/05/13 06:18:48;;;;;;;7.90;3.90;;;;;;;13.01;49.31;95455.13;4999058;28;20374;-67
2023/05/13 06:21:13;;;;;;;7.57;4.47;;;;;;;12.79;49.94;95459.13;4998707;28;20676;-65
2023/05/13 06:23:39;;;;;;;4.63;4.22;;;;;;;12.85;49.77;95455.03;4999710;28;20238;-66
2023/05/13 06:26:05;;;;;;;5.95;4.78;;;;;;;12.67;50.71;95460.34;5014665;28;20253;-67
2023/05/13 06:28:30;;;;;;;8.57;5.60;;;;;;;12.65;50.88;95463.16;5001201;28;20196;-67
2023/05/13 06:30:56;;;;;;;8.05;5.50;;;;;;;12.86;50.50;95467.25;5001465;28;20232;-69
2023/05/13 06:33:21;;;;;;;7.30;5.57;;;;;;;12.77;50.46;95469.81;4998882;28;20222;-68
2023/05/13 06:35:48;;;;;;;7.23;4.70;;;;;;;12.86;50.35;95464.63;5011163;28;20237;-65
2023/05/13 06:38:16;;;;;;;8.90;5.05;;;;;;;12.97;50.04;95477.56;4999428;28;20304;-67
2023/05/13 06:40:43;;;;;;;5.95;4.80;;;;;;;13.11;49.57;95465.59;4994980;28;20202;-67
2023/05/13 06:43:09;;;;;;;9.23;4.82;;;;;;;13.20;49.23;95478.69;4995257;28;20289;-67
2023/05/13 06:45:34;;;;;;;10.98;4.97;;;;;;;13.30;48.58;95472.50;5019569;28;20226;-66
2023/05/13 06:48:00;;;;;;;7.40;4.97;;;;;;;13.12;47.77;95464.59;4996244;28;20341;-67
2023/05/13 06:50:26;;;;;;;6.70;4.60;;;;;;;13.29;47.48;95469.03;5016778;28;20221;-68
2023/05/13 06:52:51;;;;;;;5.80;4.38;;;;;;;13.22;46.87;95460.84;4999858;28;20194;-66
2023/05/13 06:55:17;;;;;;;5.70;4.35;;;;;;;13.42;46.64;95461.50;5004047;28;20181;-69
2023/05/13 06:57:46;;;;;;;6.65;4.70;;;;;;;13.53;45.48;95463.03;5012726;28;20230;-69
2023/05/13 07:00:13;;;;;;;5.10;4.00;;;;;;;13.62;43.67;95464.69;4996317;28;20526;-69
2023/05/13 07:02:39;;;;;;;6.63;4.15;;;;;;;13.44;42.93;95456.91;4998156;28;20234;-69
2023/05/13 07:05:05;;;;;;;6.00;3.28;;;;;;;13.72;42.02;95474.34;5017114;28;20236;-69
2023/05/13 07:07:30;;;;;;;3.40;3.10;;;;;;;13.83;42.04;95466.09;5011215;28;20633;-67
2023/05/13 07:09:56;;;;;;;4.75;3.38;;;;;;;13.42;43.50;95461.50;5017399;28;20217;-67
2023/05/13 07:12:21;;;;;;;4.07;3.35;;;;;;;13.34;44.33;95476.47;5017546;28;20241;-69
2023/05/13 07:14:47;;;;;;;6.22;3.40;;;;;;;13.48;44.62;95475.88;5017665;28;20221;-69
2023/05/13 07:17:12;;;;;;;4.88;3.38;;;;;;;13.89;43.02;95476.84;5010678;28;20312;-70
2023/05/13 07:19:38;;;;;;;6.43;4.15;;;;;;;13.74;42.88;95477.63;5008970;28;20178;-70
2023/05/13 07:22:03;;;;;;;7.25;4.80;;;;;;;13.73;44.20;95486.56;5010523;28;20232;-69
2023/05/13 07:24:29;;;;;;;5.93;3.47;;;;;;;13.87;43.42;95486.78;5013420;28;20225;-69
2023/05/13 07:26:54;;;;;;;4.90;3.15;;;;;;;13.79;41.42;95494.69;5012931;28;20214;-69
2023/05/13 07:29:19;;;;;;;5.40;2.92;;;;;;;13.72;41.70;95493.66;5014879;28;20228;-69
2023/05/13 07:31:45;;;;;;;4.63;2.70;;;;;;;13.76;41.55;95499.44;5014861;28;20301;-69
2023/05/13 07:34:10;;;;;;;3.42;2.70;;;;;;;13.85;41.88;95487.94;5011173;28;20189;-71
2023/05/13 07:36:36;;;;;;;4.15;2.90;;;;;;;14.18;41.85;95490.66;5019375;28;20233;-70
2023/05/13 07:39:02;;;;;;;5.63;3.50;;;;;;;14.12;40.51;95486.84;5007470;28;20221;-70
2023/05/13 07:41:27;;;;;;;4.70;3.28;;;;;;;13.96;41.56;95490.28;5016677;28;20225;-67
2023/05/13 07:43:53;;;;;;;5.82;3.28;;;;;;;14.21;41.38;95490.31;5011985;28;20205;-70
2023/05/13 07:46:18;;;;;;;4.72;3.05;;;;;;;14.19;40.51;95479.06;5014404;28;20257;-69
2023/05/13 07:48:44;;;;;;;3.58;3.25;;;;;;;14.43;40.49;95487.03;5031994;28;20260;-70
2023/05/13 07:51:09;;;;;;;4.35;2.88;;;;;;;14.62;40.53;95487.75;5013428;28;20528;-69
2023/05/13 07:53:35;;;;;;;4.00;3.45;;;;;;;14.66;40.67;95489.09;5017540;28;20216;-69
2023/05/13 07:56:01;;;;;;;4.22;3.33;;;;;;;14.73;40.05;95492.72;5018110;28;20216;-72
2023/05/13 07:58:27;;;;;;;4.82;3.95;;;;;;;14.46;40.90;95485.88;5016360;28;20438;-71
2023/05/13 08:00:52;;;;;;;5.65;3.80;;;;;;;14.55;40.85;95485.75;5016778;28;20275;-71
2023/05/13 08:03:18;;;;;;;8.18;4.10;;;;;;;14.62;41.16;95485.09;5010143;28;20226;-71
2023/05/13 08:05:43;;;;;;;5.90;3.80;;;;;;;14.76;41.68;95481.81;5000990;28;20240;-71
2023/05/13 08:08:09;;;;;;;5.22;4.35;;;;;;;14.76;41.68;95487.09;4995612;28;20214;-70
2023/05/13 08:10:34;;;;;;;6.03;4.20;;;;;;;14.76;41.68;95477.34;4995520;28;20194;-71
2023/05/13 08:13:00;;;;;;;4.53;4.13;;;;;;;14.73;41.70;95479.50;4991985;28;20680;-71
2023/05/13 08:15:26;;;;;;;9.40;4.43;;;;;;;14.68;42.43;95487.09;4994973;28;20248;-70
2023/05/13 08:17:52;;;;;;;5.82;4.35;;;;;;;14.76;42.36;95477.34;4990674;28;20229;-71
2023/05/13 08:20:18;;;;;;;9.73;3.83;;;;;;;14.86;42.08;95474.53;4997001;28;20292;-72
2023/05/13 08:22:45;;;;;;;7.65;3.83;;;;;;;14.91;41.89;95469.53;4993078;28;20191;-69
2023/05/13 08:25:11;;;;;;;5.60;4.65;;;;;;;14.89;42.91;95481.28;4993944;28;20261;-70
2023/05/13 08:27:36;;;;;;;7.53;5.18;;;;;;;14.68;43.18;95479.16;4996715;28;20222;-71
2023/05/13 08:30:02;;;;;;;8.95;5.95;;;;;;;14.75;42.77;95475.69;5009828;28;20229;-72
2023/05/13 08:32:28;;;;;;;5.88;4.88;;;;;;;14.31;43.41;95468.03;4989595;28;20218;-73
2023/05/13 08:34:53;;;;;;;9.50;5.22;;;;;;;14.16;43.91;95464.34;4993211;28;20195;-70
2023/05/13 08:37:18;;;;;;;7.00;5.18;;;;;;;14.17;44.39;95459.91;4993325;28;20500;-71
2023/05/13 08:39:44;;;;;;;6.57;4.93;;;;;;;14.40;44.22;95465.38;4988963;28;20229;-70
2023/05/13 08:42:10;;;;;;;8.07;4.72;;;;;;;14.53;43.75;95463.09;4991940;28;20222;-70
2023/05/13 08:44:38;;;;;;;5.35;4.10;;;;;;;14.52;44.11;95459.63;5008276;28;20229;-71
2023/05/13 08:47:22;;;;;;;7.75;5.15;;;;;;;14.69;43.79;95465.75;4993008;28;20895;-70
2023/05/13 08:49:49;;;;;;;6.93;4.38;;;;;;;14.69;43.90;95455.16;5005865;28;20210;-69
2023/05/13 08:52:17;;;;;;;5.07;4.45;;;;;;;14.70;43.60;95453.34;5018433;28;20194;-69
2023/05/13 08:54:44;;;;;;;6.35;5.03;;;;;;;14.68;44.41;95453.50;5003975;28;20697;-70
2023/05/13 08:57:10;;;;;;;6.22;4.70;;;;;;;14.87;44.04;95449.69;5022452;28;20210;-70
2023/05/13 08:59:35;;;;;;;6.55;4.75;;;;;;;14.64;44.02;95448.72;5018959;28;20218;-70
2023/05/13 09:02:03;;;;;;;6.00;4.63;;;;;;;14.92;43.95;95449.19;5000486;28;20190;-70
2023/05/13 09:04:28;;;;;;;5.70;4.85;;;;;;;14.95;43.73;95443.56;5032862;28;20347;-70
2023/05/13 09:06:54;;;;;;;4.78;4.22;;;;;;;15.04;43.35;95433.78;5022153;28;20312;-70
2023/05/13 09:09:20;;;;;;;5.28;4.38;;;;;;;15.00;43.70;95434.13;5041872;28;20227;-69
2023/05/13 09:11:48;;;;;;;9.30;5.05;;;;;;;15.25;43.42;95431.41;5021711;28;20321;-69
2023/05/13 09:14:18;;;;;;;6.53;5.63;;;;;;;15.29;43.31;95432.72;5031139;28;20217;-69
2023/05/13 09:16:44;;;;;;;8.27;5.60;;;;;;;15.42;43.34;95434.81;5029780;28;20196;-70
2023/05/13 09:19:10;;;;;;;6.70;5.38;;;;;;;15.61;43.47;95425.63;5026536;28;20178;-69
2023/05/13 09:21:35;;;;;;;5.25;4.75;;;;;;;15.59;43.50;95422.34;5031180;28;20229;-69
2023/05/13 09:24:16;;;;;;;6.25;5.15;;;;;;;15.76;43.45;95421.28;5025226;28;20230;-70
2023/05/13 09:26:42;;;;;;;5.72;4.78;;;;;;;15.89;43.18;95431.31;5023480;28;20225;-70
2023/05/13 09:29:18;;;;;;;8.45;5.50;;;;;;;16.00;43.23;95424.78;5023746;28;20625;-69
2023/05/13 09:31:48;;;;;;;5.80;5.20;;;;;;;16.15;42.80;95430.19;5041690;28;20208;-69
2023/05/13 09:34:23;;;;;;;6.60;4.90;;;;;;;16.26;42.78;95432.41;5032841;28;21281;-69
2023/05/13 09:36:54;;;;;;;5.63;5.13;;;;;;;16.40;42.34;95429.00;5029343;28;20224;-70
2023/05/13 09:39:20;;;;;;;7.40;5.65;;;;;;;16.39;42.96;95421.22;5028710;28;20239;-69
2023/05/13 09:41:46;;;;;;;8.00;5.18;;;;;;;16.60;42.72;95421.38;5031795;28;20225;-69
2023/05/13 09:44:12;;;;;;;6.50;5.72;;;;;;;16.83;41.91;95426.66;5045334;28;20263;-69
2023/05/13 09:46:37;;;;;;;7.57;5.30;;;;;;;16.99;41.44;95409.75;5032566;28;20926;-70
2023/05/13 09:49:03;;;;;;;5.68;5.18;;;;;;;17.32;40.59;95420.00;5039951;28;20491;-68
2023/05/13 09:51:30;;;;;;;6.00;5.40;;;;;;;17.46;40.21;95407.75;5044730;28;20237;-68
2023/05/13 09:54:06;;;;;;;6.55;5.22;;;;;;;17.77;40.70;95408.31;5033691;28;20328;-68
2023/05/13 09:56:33;;;;;;;7.38;5.13;;;;;;;17.72;40.31;95412.56;5022984;28;20228;-67
2023/05/13 09:59:00;;;;;;;5.95;5.35;;;;;;;17.79;39.73;95405.53;5030079;28;20181;-67
2023/05/13 10:01:27;;;;;;;5.40;4.90;;;;;;;17.94;40.31;95400.19;5028874;28;20183;-67
2023/05/13 10:03:58;;;;;;;6.15;5.07;;;;;;;18.23;39.63;95400.06;5040040;28;20790;-68
2023/05/13 10:06:27;;;;;;;6.70;5.00;;;;;;;18.10;39.26;95405.25;5027883;28;20232;-67
2023/05/13 10:08:54;;;;;;;6.10;5.07;;;;;;;17.85;39.85;95402.94;5008518;28;20221;-67
2023/05/13 10:11:22;;;;;;;5.82;5.00;;;;;;;18.18;40.29;95407.81;5016490;28;20309;-67
2023/05/13 10:14:04;;;;;;;5.30;4.80;;;;;;;18.50;39.83;95400.31;5035645;28;20182;-68
2023/05/13 10:16:31;;;;;;;5.50;4.75;;;;;;;18.79;39.05;95403.84;5016132;28;20190;-68
2023/05/13 10:18:57;;;;;;;5.75;4.38;;;;;;;18.91;38.27;95395.13;5030495;28;20316;-68
2023/05/13 10:21:25;;;;;;;6.55;4.60;;;;;;;19.29;36.95;95416.09;5012891;28;20731;-68
2023/05/13 10:23:51;;;;;;;6.47;5.70;;;;;;;19.27;37.14;95406.63;5012469;28;20230;-68
2023/05/13 10:26:19;;;;;;;7.32;5.78;;;;;;;19.32;37.09;95409.53;5010945;28;20217;-67
2023/05/13 10:28:44;;;;;;;6.18;5.10;;;;;;;19.28;36.95;95409.13;5016090;28;20190;-68
2023/05/13 10:31:10;;;;;;;6.90;5.32;;;;;;;19.42;37.12;95395.88;5010787;28;20790;-70
2023/05/13 10:33:35;;;;;;;6.32;5.20;;;;;;;19.39;36.85;95386.41;5033841;28;20244;-68
2023/05/13 10:36:28;;;;;;;6.70;5.07;;;;;;;18.79;39.27;95386.03;5013934;28;20217;-68
2023/05/13 10:39:21;;;;;;;6.55;4.72;;;;;;;18.87;39.72;95401.03;5013547;28;20305;-68
2023/05/13 10:41:49;;;;;;;5.05;4.45;;;;;;;18.89;39.45;95404.34;5013438;28;20238;-68
2023/05/13 10:44:18;;;;;;;5.95;4.63;;;;;;;18.76;38.86;95404.25;5016381;28;20225;-68
2023/05/13 10:46:47;;;;;;;6.15;5.07;;;;;;;18.63;39.04;95403.09;5031343;28;20185;-68
2023/05/13 10:49:15;;;;;;;5.90;5.20;;;;;;;18.36;39.57;95409.19;5029331;28;20171;-68
2023/05/13 10:51:48;;;;;;;6.15;5.43;;;;;;;18.36;39.77;95414.50;5016256;28;20221;-68
2023/05/13 10:54:22;;;;;;;5.95;5.45;;;;;;;18.38;39.60;95415.16;5034269;28;20237;-68
2023/05/13 10:57:14;;;;;;;6.35;5.72;;;;;;;18.33;40.23;95412.22;5029373;28;20225;-68
2023/05/13 11:00:13;;;;;;;6.80;5.57;;;;;;;18.25;40.27;95405.19;5005433;28;20245;-68
2023/05/13 11:02:39;;;;;;;5.90;5.40;;;;;;;18.06;40.54;95410.13;5018447;28;20276;-68
2023/05/13 11:05:04;;;;;;;5.97;5.38;;;;;;;18.02;40.63;95422.16;5019035;28;20236;-69
2023/05/13 11:07:30;;;;;;;6.47;5.97;;;;;;;17.64;41.32;95410.81;5017993;28;20182;-69
2023/05/13 11:09:55;;;;;;;7.75;6.20;;;;;;;17.72;41.48;95408.09;5011598;28;20217;-69
2023/05/13 11:12:21;;;;;;;6.35;5.75;;;;;;;17.83;41.13;95407.63;5009377;28;20237;-70
2023/05/13 11:14:47;;;;;;;6.65;5.88;;;;;;;17.84;41.65;95400.47;5011202;28;20247;-71
2023/05/13 11:17:18;;;;;;;6.18;5.55;;;;;;;17.97;41.42;95399.78;5030849;28;20225;-72
2023/05/13 11:19:45;;;;;;;7.88;5.40;;;;;;;18.13;41.27;95398.75;5009518;28;20209;-73
2023/05/13 11:22:17;;;;;;;7.03;5.50;;;;;;;18.41;41.44;95390.81;5015748;28;20185;-70
2023/05/13 11:25:09;;;;;;;5.95;5.40;;;;;;;18.62;40.97;95395.28;5016608;28;20233;-68
2023/05/13 11:27:39;;;;;;;8.13;6.88;;;;;;;18.87;41.01;95391.22;4969678;28;20298;-69
2023/05/13 11:30:07;;;;;;;6.40;5.90;;;;;;;19.13;40.43;95382.56;4970329;28;20231;-68
2023/05/13 11:32:58;;;;;;;8.15;6.10;;;;;;;19.43;39.67;95387.66;4996080;28;20233;-67